createdAt,value
2022-10-26T00:00:04.568Z,11.59
2022-10-26T00:00:14.826Z,11.59
2022-10-26T00:00:25.093Z,11.58
2022-10-26T00:00:35.361Z,11.60
2022-10-26T00:00:45.614Z,11.59
2022-10-26T00:00:55.878Z,11.58
2022-10-26T00:01:06.234Z,11.58
2022-10-26T00:01:16.627Z,11.58
2022-10-26T00:01:27.064Z,11.59
2022-10-26T00:01:37.286Z,11.59
2022-10-26T00:01:47.655Z,11.58
2022-10-26T00:01:58.050Z,11.58
2022-10-26T00:02:08.439Z,11.56
2022-10-26T00:02:18.963Z,11.56
2022-10-26T00:02:29.214Z,11.58
2022-10-26T00:02:39.500Z,11.58
2022-10-26T00:02:49.994Z,11.59
2022-10-26T00:03:00.019Z,11.60
2022-10-26T00:03:10.277Z,11.59
2022-10-26T00:03:20.542Z,11.58
2022-10-26T00:03:30.801Z,11.59
2022-10-26T00:03:41.062Z,11.58
2022-10-26T00:03:51.323Z,11.59
2022-10-26T00:04:01.586Z,11.59
2022-10-26T00:04:11.847Z,11.56
2022-10-26T00:04:22.109Z,11.59
2022-10-26T00:04:32.369Z,11.59
2022-10-26T00:04:42.632Z,11.56
2022-10-26T00:04:52.892Z,11.58
2022-10-26T00:05:03.156Z,11.58
2022-10-26T00:05:13.414Z,11.58
2022-10-26T00:05:23.679Z,11.58
2022-10-26T00:05:33.947Z,11.58
2022-10-26T00:05:44.201Z,11.58
2022-10-26T00:05:54.465Z,11.53
2022-10-26T00:06:04.723Z,11.58
2022-10-26T00:06:14.986Z,11.58
2022-10-26T00:06:25.247Z,11.58
2022-10-26T00:06:35.508Z,11.58
2022-10-26T00:06:45.768Z,11.56
2022-10-26T00:06:56.030Z,11.59
2022-10-26T00:07:06.299Z,11.56
2022-10-26T00:07:16.563Z,11.59
2022-10-26T00:07:26.931Z,11.58
2022-10-26T00:07:37.252Z,11.58
2022-10-26T00:07:47.478Z,11.56
2022-10-26T00:07:57.735Z,11.58
2022-10-26T00:08:07.998Z,11.58
2022-10-26T00:08:18.261Z,11.58
2022-10-26T00:08:28.521Z,11.58
2022-10-26T00:08:38.782Z,11.55
2022-10-26T00:08:49.042Z,11.58
2022-10-26T00:08:59.303Z,11.58
2022-10-26T00:09:09.566Z,11.56
2022-10-26T00:09:19.827Z,11.56
2022-10-26T00:09:30.092Z,11.58
2022-10-26T00:09:40.350Z,11.56
2022-10-26T00:09:50.611Z,11.56
2022-10-26T00:10:00.874Z,11.58
2022-10-26T00:10:11.135Z,11.59
2022-10-26T00:10:21.402Z,11.56
2022-10-26T00:10:31.961Z,11.58
2022-10-26T00:10:42.005Z,11.56
2022-10-26T00:10:52.268Z,11.56
2022-10-26T00:11:02.530Z,11.58
2022-10-26T00:11:12.790Z,11.55
2022-10-26T00:11:23.049Z,11.58
2022-10-26T00:11:33.313Z,11.56
2022-10-26T00:11:43.574Z,11.56
2022-10-26T00:11:53.835Z,11.56
2022-10-26T00:12:04.097Z,11.56
2022-10-26T00:12:14.377Z,11.58
2022-10-26T00:12:24.616Z,11.58
2022-10-26T00:12:34.889Z,11.58
2022-10-26T00:12:45.152Z,11.56
2022-10-26T00:12:55.415Z,11.58
2022-10-26T00:13:05.676Z,11.56
2022-10-26T00:13:15.940Z,11.58
2022-10-26T00:13:26.200Z,11.56
2022-10-26T00:13:36.462Z,11.58
2022-10-26T00:13:46.726Z,11.56
2022-10-26T00:13:56.988Z,11.56
2022-10-26T00:14:07.248Z,11.58
2022-10-26T00:14:17.509Z,11.56
2022-10-26T00:14:27.770Z,11.55
2022-10-26T00:14:38.032Z,11.55
2022-10-26T00:14:48.290Z,11.58
2022-10-26T00:14:58.552Z,11.56
2022-10-26T00:15:08.813Z,11.56
2022-10-26T00:15:19.074Z,11.58
2022-10-26T00:15:29.334Z,11.58
2022-10-26T00:15:39.597Z,11.56
2022-10-26T00:15:49.879Z,11.56
2022-10-26T00:16:10.355Z,11.58
2022-10-26T00:16:20.622Z,11.58
2022-10-26T00:16:30.883Z,11.56
2022-10-26T00:16:41.141Z,11.59
2022-10-26T00:16:51.404Z,11.58
2022-10-26T00:17:01.663Z,11.56
2022-10-26T00:17:11.929Z,11.56
2022-10-26T00:17:22.207Z,11.56
2022-10-26T00:17:32.476Z,11.56
2022-10-26T00:17:42.730Z,11.56
2022-10-26T00:17:52.990Z,11.58
2022-10-26T00:18:03.252Z,11.58
2022-10-26T00:18:13.527Z,11.56
2022-10-26T00:18:23.784Z,11.56
2022-10-26T00:18:34.045Z,11.55
2022-10-26T00:18:44.307Z,11.56
2022-10-26T00:18:54.568Z,11.56
2022-10-26T00:19:04.829Z,11.56
2022-10-26T00:19:15.090Z,11.58
2022-10-26T00:19:25.359Z,11.56
2022-10-26T00:19:35.633Z,11.58
2022-10-26T00:19:45.889Z,11.56
2022-10-26T00:19:56.149Z,11.58
2022-10-26T00:20:06.409Z,11.56
2022-10-26T00:20:16.670Z,11.56
2022-10-26T00:20:26.933Z,11.56
2022-10-26T00:20:37.193Z,11.56
2022-10-26T00:20:47.457Z,11.59
2022-10-26T00:20:57.718Z,11.58
2022-10-26T00:21:08.003Z,11.56
2022-10-26T00:21:18.238Z,11.56
2022-10-26T00:21:28.501Z,11.56
2022-10-26T00:21:38.763Z,11.56
2022-10-26T00:21:49.025Z,11.58
2022-10-26T00:21:59.284Z,11.55
2022-10-26T00:22:09.553Z,11.56
2022-10-26T00:22:19.806Z,11.56
2022-10-26T00:22:30.081Z,11.58
2022-10-26T00:22:40.343Z,11.55
2022-10-26T00:22:50.603Z,11.58
2022-10-26T00:23:00.867Z,11.56
2022-10-26T00:23:11.126Z,11.55
2022-10-26T00:23:21.386Z,11.56
2022-10-26T00:23:31.666Z,11.56
2022-10-26T00:23:41.911Z,11.58
2022-10-26T00:23:52.173Z,11.55
2022-10-26T00:24:02.431Z,11.56
2022-10-26T00:24:12.768Z,11.55
2022-10-26T00:24:23.001Z,11.56
2022-10-26T00:24:33.247Z,11.58
2022-10-26T00:24:43.510Z,11.58
2022-10-26T00:24:53.766Z,11.56
2022-10-26T00:25:04.031Z,11.56
2022-10-26T00:25:14.304Z,11.58
2022-10-26T00:25:24.548Z,11.56
2022-10-26T00:25:34.812Z,11.58
2022-10-26T00:25:45.076Z,11.58
2022-10-26T00:25:55.341Z,11.58
2022-10-26T00:26:05.598Z,11.58
2022-10-26T00:26:15.860Z,11.58
2022-10-26T00:26:26.121Z,11.59
2022-10-26T00:26:36.383Z,11.58
2022-10-26T00:26:46.646Z,11.58
2022-10-26T00:26:56.907Z,11.58
2022-10-26T00:27:07.169Z,11.58
2022-10-26T00:27:17.454Z,11.56
2022-10-26T00:27:27.689Z,11.56
2022-10-26T00:27:37.967Z,11.59
2022-10-26T00:27:48.592Z,11.56
2022-10-26T00:27:58.587Z,11.59
2022-10-26T00:28:08.850Z,11.58
2022-10-26T00:28:19.109Z,11.56
2022-10-26T00:28:29.371Z,11.58
2022-10-26T00:28:39.637Z,11.55
2022-10-26T00:28:49.897Z,11.58
2022-10-26T00:29:00.155Z,11.56
2022-10-26T00:29:10.416Z,11.59
2022-10-26T00:29:20.679Z,11.59
2022-10-26T00:29:30.940Z,11.56
2022-10-26T00:29:41.206Z,11.56
2022-10-26T00:29:51.463Z,11.56
2022-10-26T00:30:01.727Z,11.59
2022-10-26T00:30:11.985Z,11.56
2022-10-26T00:30:22.251Z,11.56
2022-10-26T00:30:32.507Z,11.56
2022-10-26T00:30:42.768Z,11.58
2022-10-26T00:30:53.034Z,11.58
2022-10-26T00:31:03.298Z,11.58
2022-10-26T00:31:13.552Z,11.59
2022-10-26T00:31:23.815Z,11.56
2022-10-26T00:31:34.094Z,11.56
2022-10-26T00:31:44.340Z,11.58
2022-10-26T00:31:54.601Z,11.58
2022-10-26T00:32:04.863Z,11.58
2022-10-26T00:32:15.121Z,11.55
2022-10-26T00:32:25.383Z,11.59
2022-10-26T00:32:35.720Z,11.56
2022-10-26T00:32:45.979Z,11.58
2022-10-26T00:32:56.242Z,11.58
2022-10-26T00:33:06.502Z,11.58
2022-10-26T00:33:16.764Z,11.56
2022-10-26T00:33:27.025Z,11.58
2022-10-26T00:33:37.304Z,11.58
2022-10-26T00:33:47.551Z,11.59
2022-10-26T00:33:57.811Z,11.58
2022-10-26T00:34:08.075Z,11.56
2022-10-26T00:34:18.335Z,11.56
2022-10-26T00:34:28.600Z,11.56
2022-10-26T00:34:38.860Z,11.58
2022-10-26T00:34:49.143Z,11.56
2022-10-26T00:35:10.316Z,11.55
2022-10-26T00:35:21.574Z,11.56
2022-10-26T00:35:23.326Z,11.55
2022-10-26T00:35:45.123Z,11.58
2022-10-26T00:35:45.951Z,11.55
2022-10-26T00:35:51.221Z,11.56
2022-10-26T00:36:01.480Z,11.58
2022-10-26T00:36:11.748Z,11.58
2022-10-26T00:36:22.003Z,11.56
2022-10-26T00:36:32.267Z,11.56
2022-10-26T00:36:42.527Z,11.58
2022-10-26T00:36:52.789Z,11.58
2022-10-26T00:37:03.050Z,11.58
2022-10-26T00:37:13.326Z,11.58
2022-10-26T00:37:23.588Z,11.58
2022-10-26T00:37:33.850Z,11.58
2022-10-26T00:37:44.111Z,11.58
2022-10-26T00:37:54.374Z,11.59
2022-10-26T00:38:04.633Z,11.58
2022-10-26T00:38:14.900Z,11.59
2022-10-26T00:38:25.160Z,11.58
2022-10-26T00:38:35.422Z,11.59
2022-10-26T00:38:45.687Z,11.56
2022-10-26T00:38:55.946Z,11.56
2022-10-26T00:39:06.211Z,11.58
2022-10-26T00:39:16.473Z,11.58
2022-10-26T00:39:26.733Z,11.56
2022-10-26T00:39:36.998Z,11.58
2022-10-26T00:39:47.257Z,11.59
2022-10-26T00:39:57.521Z,11.56
2022-10-26T00:40:07.781Z,11.58
2022-10-26T00:40:18.044Z,11.56
2022-10-26T00:40:28.304Z,11.56
2022-10-26T00:40:38.566Z,11.58
2022-10-26T00:40:48.886Z,11.58
2022-10-26T00:40:59.290Z,11.58
2022-10-26T00:41:09.570Z,11.59
2022-10-26T00:41:19.834Z,11.56
2022-10-26T00:41:30.093Z,11.59
2022-10-26T00:41:40.356Z,11.56
2022-10-26T00:41:50.617Z,11.56
2022-10-26T00:42:00.879Z,11.58
2022-10-26T00:42:11.140Z,11.56
2022-10-26T00:42:21.425Z,11.58
2022-10-26T00:42:31.677Z,11.59
2022-10-26T00:42:41.955Z,11.56
2022-10-26T00:42:52.385Z,11.58
2022-10-26T00:43:02.429Z,11.59
2022-10-26T00:43:12.690Z,11.58
2022-10-26T00:43:22.952Z,11.58
2022-10-26T00:43:33.214Z,11.56
2022-10-26T00:43:43.476Z,11.58
2022-10-26T00:43:53.738Z,11.58
2022-10-26T00:44:03.998Z,11.56
2022-10-26T00:44:14.261Z,11.58
2022-10-26T00:44:24.529Z,11.56
2022-10-26T00:44:36.837Z,11.58
2022-10-26T00:44:45.192Z,11.58
2022-10-26T00:44:55.455Z,11.58
2022-10-26T00:45:05.715Z,11.58
2022-10-26T00:45:15.978Z,11.56
2022-10-26T00:45:26.238Z,11.58
2022-10-26T00:45:36.500Z,11.58
2022-10-26T00:45:46.761Z,11.56
2022-10-26T00:45:57.023Z,11.56
2022-10-26T00:46:07.282Z,11.58
2022-10-26T00:46:17.546Z,11.56
2022-10-26T00:46:27.812Z,11.58
2022-10-26T00:46:38.075Z,11.58
2022-10-26T00:46:48.332Z,11.58
2022-10-26T00:46:58.595Z,11.58
2022-10-26T00:47:08.861Z,11.56
2022-10-26T00:47:19.130Z,11.58
2022-10-26T00:47:29.390Z,11.59
2022-10-26T00:47:39.653Z,11.59
2022-10-26T00:47:49.914Z,11.58
2022-10-26T00:48:00.176Z,11.58
2022-10-26T00:48:10.441Z,11.58
2022-10-26T00:48:20.700Z,11.58
2022-10-26T00:48:30.961Z,11.56
2022-10-26T00:48:41.224Z,11.58
2022-10-26T00:48:51.484Z,11.59
2022-10-26T00:49:01.748Z,11.58
2022-10-26T00:49:12.048Z,11.58
2022-10-26T00:49:22.284Z,11.58
2022-10-26T00:49:32.545Z,11.59
2022-10-26T00:49:42.813Z,11.58
2022-10-26T00:49:53.074Z,11.59
2022-10-26T00:50:03.333Z,11.60
2022-10-26T00:50:13.595Z,11.58
2022-10-26T00:50:23.856Z,11.58
2022-10-26T00:50:34.117Z,11.58
2022-10-26T00:50:44.387Z,11.56
2022-10-26T00:50:54.643Z,11.59
2022-10-26T00:51:04.908Z,11.58
2022-10-26T00:51:15.192Z,11.58
2022-10-26T00:51:25.448Z,11.56
2022-10-26T00:51:35.709Z,11.58
2022-10-26T00:51:45.969Z,11.59
2022-10-26T00:51:56.232Z,11.60
2022-10-26T00:52:06.494Z,11.56
2022-10-26T00:52:16.774Z,11.58
2022-10-26T00:52:27.036Z,11.58
2022-10-26T00:52:37.296Z,11.59
2022-10-26T00:52:47.972Z,11.58
2022-10-26T00:52:57.775Z,11.59
2022-10-26T00:53:08.033Z,11.58
2022-10-26T00:53:18.294Z,11.58
2022-10-26T00:53:28.561Z,11.59
2022-10-26T00:53:38.817Z,11.58
2022-10-26T00:53:49.079Z,11.58
2022-10-26T00:53:59.371Z,11.59
2022-10-26T00:54:09.647Z,11.59
2022-10-26T00:54:19.894Z,11.59
2022-10-26T00:54:30.155Z,11.56
2022-10-26T00:54:40.415Z,11.58
2022-10-26T00:54:50.679Z,11.58
2022-10-26T00:55:00.939Z,11.58
2022-10-26T00:55:11.204Z,11.59
2022-10-26T00:55:21.468Z,11.59
2022-10-26T00:55:31.744Z,11.59
2022-10-26T00:55:41.982Z,11.59
2022-10-26T00:55:52.241Z,11.60
2022-10-26T00:56:02.512Z,11.59
2022-10-26T00:56:12.766Z,11.60
2022-10-26T00:56:23.027Z,11.59
2022-10-26T00:56:33.290Z,11.60
2022-10-26T00:56:43.551Z,11.60
2022-10-26T00:56:53.825Z,11.58
2022-10-26T00:57:04.072Z,11.59
2022-10-26T00:57:14.335Z,11.60
2022-10-26T00:57:24.655Z,11.60
2022-10-26T00:57:34.921Z,11.59
2022-10-26T00:57:45.139Z,11.58
2022-10-26T00:57:55.407Z,11.58
2022-10-26T00:58:05.667Z,11.59
2022-10-26T00:58:15.937Z,11.60
2022-10-26T00:58:26.189Z,11.59
2022-10-26T00:58:36.447Z,11.59
2022-10-26T00:58:46.707Z,11.59
2022-10-26T00:58:56.970Z,11.60
2022-10-26T00:59:07.238Z,11.59
2022-10-26T00:59:17.493Z,11.59
2022-10-26T00:59:27.752Z,11.60
2022-10-26T00:59:38.014Z,11.60
2022-10-26T00:59:48.277Z,11.59
2022-10-26T00:59:58.535Z,11.60
2022-10-26T01:00:08.796Z,11.60
2022-10-26T01:00:19.063Z,11.62
2022-10-26T01:00:29.320Z,11.58
2022-10-26T01:00:39.581Z,11.59
2022-10-26T01:00:49.840Z,11.59
2022-10-26T01:01:00.108Z,11.60
2022-10-26T01:01:10.407Z,11.60
2022-10-26T01:01:20.726Z,11.59
2022-10-26T01:01:31.019Z,11.62
2022-10-26T01:01:41.356Z,11.59
2022-10-26T01:01:51.602Z,11.60
2022-10-26T01:02:01.861Z,11.60
2022-10-26T01:02:12.121Z,11.59
2022-10-26T01:02:22.408Z,11.60
2022-10-26T01:02:32.671Z,11.60
2022-10-26T01:02:42.935Z,11.63
2022-10-26T01:02:53.192Z,11.60
2022-10-26T01:03:03.459Z,11.60
2022-10-26T01:03:13.786Z,11.62
2022-10-26T01:03:24.065Z,11.62
2022-10-26T01:03:34.348Z,11.62
2022-10-26T01:03:44.617Z,11.62
2022-10-26T01:03:54.866Z,11.60
2022-10-26T01:04:05.219Z,11.60
2022-10-26T01:04:15.500Z,11.62
2022-10-26T01:04:25.762Z,11.62
2022-10-26T01:04:36.023Z,11.62
2022-10-26T01:04:46.285Z,11.62
2022-10-26T01:04:56.545Z,11.60
2022-10-26T01:05:06.820Z,11.62
2022-10-26T01:05:17.068Z,11.60
2022-10-26T01:05:27.330Z,11.62
2022-10-26T01:05:37.590Z,11.62
2022-10-26T01:05:47.854Z,11.63
2022-10-26T01:05:58.110Z,11.62
2022-10-26T01:06:08.374Z,11.62
2022-10-26T01:06:18.636Z,11.62
2022-10-26T01:06:28.899Z,11.62
2022-10-26T01:06:39.159Z,11.63
2022-10-26T01:06:49.420Z,11.62
2022-10-26T01:06:59.699Z,11.63
2022-10-26T01:07:10.014Z,11.62
2022-10-26T01:07:30.684Z,11.62
2022-10-26T01:07:40.946Z,11.65
2022-10-26T01:07:51.550Z,11.62
2022-10-26T01:08:01.445Z,11.62
2022-10-26T01:08:11.709Z,11.63
2022-10-26T01:08:21.968Z,11.63
2022-10-26T01:08:32.230Z,11.63
2022-10-26T01:08:42.492Z,11.63
2022-10-26T01:08:52.754Z,11.63
2022-10-26T01:09:03.025Z,11.63
2022-10-26T01:09:13.282Z,11.65
2022-10-26T01:09:23.555Z,11.63
2022-10-26T01:09:33.833Z,11.63
2022-10-26T01:09:44.080Z,11.62
2022-10-26T01:09:54.339Z,11.65
2022-10-26T01:10:04.600Z,11.65
2022-10-26T01:10:14.863Z,11.63
2022-10-26T01:10:25.126Z,11.63
2022-10-26T01:10:35.389Z,11.63
2022-10-26T01:10:45.654Z,11.65
2022-10-26T01:10:55.917Z,11.65
2022-10-26T01:11:06.176Z,11.65
2022-10-26T01:11:16.439Z,11.63
2022-10-26T01:11:26.700Z,11.63
2022-10-26T01:11:36.964Z,11.62
2022-10-26T01:11:47.224Z,11.67
2022-10-26T01:11:57.489Z,11.65
2022-10-26T01:12:07.751Z,11.65
2022-10-26T01:12:18.024Z,11.63
2022-10-26T01:12:28.309Z,11.65
2022-10-26T01:12:38.550Z,11.67
2022-10-26T01:12:48.810Z,11.67
2022-10-26T01:12:59.085Z,11.65
2022-10-26T01:13:09.346Z,11.65
2022-10-26T01:13:19.614Z,11.67
2022-10-26T01:13:29.878Z,11.65
2022-10-26T01:13:40.135Z,11.67
2022-10-26T01:13:50.394Z,11.65
2022-10-26T01:14:00.660Z,11.65
2022-10-26T01:14:10.927Z,11.63
2022-10-26T01:14:21.181Z,11.65
2022-10-26T01:14:31.440Z,11.67
2022-10-26T01:14:41.713Z,11.63
2022-10-26T01:14:51.966Z,11.65
2022-10-26T01:15:02.228Z,11.67
2022-10-26T01:15:12.488Z,11.65
2022-10-26T01:15:22.752Z,11.67
2022-10-26T01:15:33.013Z,11.65
2022-10-26T01:15:43.282Z,11.67
2022-10-26T01:15:53.542Z,11.65
2022-10-26T01:16:03.800Z,11.67
2022-10-26T01:16:14.061Z,11.65
2022-10-26T01:16:24.331Z,11.65
2022-10-26T01:16:36.397Z,11.67
2022-10-26T01:16:44.999Z,11.65
2022-10-26T01:16:55.301Z,11.68
2022-10-26T01:17:05.550Z,11.67
2022-10-26T01:17:15.811Z,11.67
2022-10-26T01:17:26.074Z,11.65
2022-10-26T01:17:36.335Z,11.65
2022-10-26T01:17:46.864Z,11.67
2022-10-26T01:17:56.914Z,11.67
2022-10-26T01:18:07.182Z,11.67
2022-10-26T01:18:17.420Z,11.67
2022-10-26T01:18:27.682Z,11.67
2022-10-26T01:18:37.943Z,11.67
2022-10-26T01:18:48.206Z,11.63
2022-10-26T01:18:58.466Z,11.67
2022-10-26T01:19:08.729Z,11.65
2022-10-26T01:19:18.990Z,11.67
2022-10-26T01:19:29.254Z,11.65
2022-10-26T01:19:39.514Z,11.68
2022-10-26T01:19:49.776Z,11.68
2022-10-26T01:20:00.049Z,11.67
2022-10-26T01:20:10.299Z,11.67
2022-10-26T01:20:20.561Z,11.68
2022-10-26T01:20:30.823Z,11.68
2022-10-26T01:20:41.086Z,11.68
2022-10-26T01:20:51.349Z,11.68
2022-10-26T01:21:01.609Z,11.70
2022-10-26T01:21:11.872Z,11.68
2022-10-26T01:21:22.134Z,11.68
2022-10-26T01:21:32.397Z,11.68
2022-10-26T01:21:42.662Z,11.67
2022-10-26T01:21:52.927Z,11.68
2022-10-26T01:22:03.203Z,11.70
2022-10-26T01:22:13.466Z,11.67
2022-10-26T01:22:23.727Z,11.68
2022-10-26T01:22:33.991Z,11.68
2022-10-26T01:22:44.250Z,11.67
2022-10-26T01:22:54.518Z,11.70
2022-10-26T01:23:04.774Z,11.70
2022-10-26T01:23:15.036Z,11.70
2022-10-26T01:23:25.299Z,11.70
2022-10-26T01:23:35.569Z,11.68
2022-10-26T01:23:45.830Z,11.68
2022-10-26T01:23:56.098Z,11.70
2022-10-26T01:24:06.353Z,11.70
2022-10-26T01:24:16.615Z,11.70
2022-10-26T01:24:26.875Z,11.70
2022-10-26T01:24:37.138Z,11.68
2022-10-26T01:24:47.399Z,11.70
2022-10-26T01:24:57.661Z,11.71
2022-10-26T01:25:07.933Z,11.71
2022-10-26T01:25:18.199Z,11.71
2022-10-26T01:25:28.457Z,11.68
2022-10-26T01:25:38.720Z,11.70
2022-10-26T01:25:48.980Z,11.68
2022-10-26T01:25:59.261Z,11.68
2022-10-26T01:26:09.523Z,11.70
2022-10-26T01:26:19.791Z,11.71
2022-10-26T01:26:30.055Z,11.71
2022-10-26T01:26:40.383Z,11.70
2022-10-26T01:26:53.623Z,11.73
2022-10-26T01:27:01.024Z,11.71
2022-10-26T01:27:11.293Z,11.71
2022-10-26T01:27:21.557Z,11.71
2022-10-26T01:27:31.844Z,11.73
2022-10-26T01:27:42.081Z,11.71
2022-10-26T01:27:52.487Z,11.71
2022-10-26T01:28:02.568Z,11.70
2022-10-26T01:28:12.832Z,11.70
2022-10-26T01:28:23.093Z,11.74
2022-10-26T01:28:33.355Z,11.73
2022-10-26T01:28:43.615Z,11.70
2022-10-26T01:28:53.881Z,11.73
2022-10-26T01:29:04.141Z,11.71
2022-10-26T01:29:14.409Z,11.71
2022-10-26T01:29:24.666Z,11.71
2022-10-26T01:29:34.930Z,11.71
2022-10-26T01:29:45.192Z,11.73
2022-10-26T01:29:55.452Z,11.71
2022-10-26T01:30:05.712Z,11.73
2022-10-26T01:30:15.983Z,11.73
2022-10-26T01:30:26.242Z,11.73
2022-10-26T01:30:36.500Z,11.73
2022-10-26T01:30:46.761Z,11.74
2022-10-26T01:30:57.022Z,11.73
2022-10-26T01:31:07.283Z,11.73
2022-10-26T01:31:17.546Z,11.74
2022-10-26T01:31:27.817Z,11.74
2022-10-26T01:31:38.071Z,11.74
2022-10-26T01:31:48.331Z,11.74
2022-10-26T01:31:58.594Z,11.76
2022-10-26T01:32:08.854Z,11.71
2022-10-26T01:32:19.142Z,11.76
2022-10-26T01:32:29.403Z,11.76
2022-10-26T01:32:39.672Z,11.74
2022-10-26T01:32:49.928Z,11.74
2022-10-26T01:33:00.190Z,11.74
2022-10-26T01:33:10.450Z,11.74
2022-10-26T01:33:20.716Z,11.74
2022-10-26T01:33:30.973Z,11.74
2022-10-26T01:33:41.243Z,11.74
2022-10-26T01:33:51.501Z,11.77
2022-10-26T01:34:01.763Z,11.74
2022-10-26T01:34:12.023Z,11.76
2022-10-26T01:34:22.285Z,11.77
2022-10-26T01:34:32.549Z,11.76
2022-10-26T01:34:42.813Z,11.76
2022-10-26T01:34:53.074Z,11.73
2022-10-26T01:35:03.337Z,11.76
2022-10-26T01:35:13.598Z,11.77
2022-10-26T01:35:23.856Z,11.76
2022-10-26T01:35:34.127Z,11.77
2022-10-26T01:35:44.383Z,11.77
2022-10-26T01:35:54.642Z,11.76
2022-10-26T01:36:04.904Z,11.76
2022-10-26T01:36:15.165Z,11.77
2022-10-26T01:36:25.462Z,11.77
2022-10-26T01:36:35.692Z,11.78
2022-10-26T01:36:45.954Z,11.78
2022-10-26T01:36:56.219Z,11.76
2022-10-26T01:37:06.479Z,11.78
2022-10-26T01:37:16.745Z,11.77
2022-10-26T01:37:27.039Z,11.77
2022-10-26T01:37:37.312Z,11.78
2022-10-26T01:37:48.101Z,11.77
2022-10-26T01:37:57.908Z,11.78
2022-10-26T01:38:08.172Z,11.77
2022-10-26T01:38:18.432Z,11.78
2022-10-26T01:38:28.694Z,11.80
2022-10-26T01:38:38.958Z,11.78
2022-10-26T01:38:49.234Z,11.78
2022-10-26T01:38:59.489Z,11.78
2022-10-26T01:39:09.752Z,11.80
2022-10-26T01:39:20.014Z,11.80
2022-10-26T01:39:30.275Z,11.80
2022-10-26T01:39:40.536Z,11.81
2022-10-26T01:39:50.799Z,11.78
2022-10-26T01:40:01.066Z,11.80
2022-10-26T01:40:11.322Z,11.80
2022-10-26T01:40:21.582Z,11.80
2022-10-26T01:40:31.844Z,11.80
2022-10-26T01:40:42.105Z,11.78
2022-10-26T01:40:52.371Z,11.80
2022-10-26T01:41:02.633Z,11.80
2022-10-26T01:41:12.897Z,11.78
2022-10-26T01:41:23.157Z,11.78
2022-10-26T01:41:33.446Z,11.80
2022-10-26T01:41:43.708Z,11.81
2022-10-26T01:41:53.975Z,11.78
2022-10-26T01:42:04.238Z,11.80
2022-10-26T01:42:14.497Z,11.81
2022-10-26T01:42:24.756Z,11.80
2022-10-26T01:42:35.055Z,11.81
2022-10-26T01:42:45.298Z,11.83
2022-10-26T01:42:55.558Z,11.80
2022-10-26T01:43:05.820Z,11.81
2022-10-26T01:43:16.081Z,11.81
2022-10-26T01:43:26.345Z,11.81
2022-10-26T01:43:36.613Z,11.81
2022-10-26T01:43:46.868Z,11.81
2022-10-26T01:43:57.129Z,11.83
2022-10-26T01:44:07.400Z,11.85
2022-10-26T01:44:17.652Z,11.81
2022-10-26T01:44:27.911Z,11.81
2022-10-26T01:44:38.176Z,11.83
2022-10-26T01:44:48.436Z,11.81
2022-10-26T01:44:58.700Z,11.83
2022-10-26T01:45:09.127Z,11.81
2022-10-26T01:45:19.389Z,11.83
2022-10-26T01:45:29.656Z,11.83
2022-10-26T01:45:39.916Z,11.81
2022-10-26T01:45:50.177Z,11.85
2022-10-26T01:46:00.439Z,11.83
2022-10-26T01:46:10.796Z,11.83
2022-10-26T01:46:21.044Z,11.83
2022-10-26T01:46:31.306Z,11.83
2022-10-26T01:46:41.565Z,11.83
2022-10-26T01:46:51.826Z,11.83
2022-10-26T01:47:02.098Z,11.81
2022-10-26T01:47:12.351Z,11.85
2022-10-26T01:47:22.620Z,11.85
2022-10-26T01:47:32.895Z,11.85
2022-10-26T01:47:43.159Z,11.83
2022-10-26T01:47:53.418Z,11.85
2022-10-26T01:48:03.681Z,11.85
2022-10-26T01:48:13.942Z,11.85
2022-10-26T01:48:24.209Z,11.85
2022-10-26T01:48:34.469Z,11.85
2022-10-26T01:48:44.730Z,11.85
2022-10-26T01:48:54.993Z,11.86
2022-10-26T01:49:05.257Z,11.85
2022-10-26T01:49:15.517Z,11.85
2022-10-26T01:49:25.780Z,11.85
2022-10-26T01:49:36.042Z,11.86
2022-10-26T01:49:46.305Z,11.85
2022-10-26T01:49:56.567Z,11.85
2022-10-26T01:50:06.829Z,11.86
2022-10-26T01:50:17.089Z,11.86
2022-10-26T01:50:27.352Z,11.86
2022-10-26T01:50:37.613Z,11.88
2022-10-26T01:50:47.886Z,11.85
2022-10-26T01:50:58.140Z,11.85
2022-10-26T01:51:08.399Z,11.86
2022-10-26T01:51:18.661Z,11.86
2022-10-26T01:51:28.927Z,11.86
2022-10-26T01:51:39.196Z,11.86
2022-10-26T01:51:49.447Z,11.86
2022-10-26T01:51:59.722Z,11.88
2022-10-26T01:52:09.972Z,11.86
2022-10-26T01:52:20.233Z,11.88
2022-10-26T01:52:30.513Z,11.85
2022-10-26T01:52:40.772Z,11.86
2022-10-26T01:52:51.034Z,11.86
2022-10-26T01:53:01.295Z,11.88
2022-10-26T01:53:11.557Z,11.85
2022-10-26T01:53:21.819Z,11.88
2022-10-26T01:53:32.091Z,11.88
2022-10-26T01:53:42.348Z,11.86
2022-10-26T01:53:52.604Z,11.88
2022-10-26T01:54:02.869Z,11.86
2022-10-26T01:54:13.129Z,11.88
2022-10-26T01:54:23.389Z,11.88
2022-10-26T01:54:33.664Z,11.86
2022-10-26T01:54:43.927Z,11.88
2022-10-26T01:54:54.188Z,11.88
2022-10-26T01:55:04.438Z,11.88
2022-10-26T01:55:14.708Z,11.89
2022-10-26T01:55:24.960Z,11.89
2022-10-26T01:55:35.223Z,11.88
2022-10-26T01:55:45.485Z,11.86
2022-10-26T01:55:55.748Z,11.88
2022-10-26T01:56:06.007Z,11.89
2022-10-26T01:56:16.271Z,11.88
2022-10-26T01:56:26.533Z,11.88
2022-10-26T01:56:36.795Z,11.86
2022-10-26T01:56:47.064Z,11.89
2022-10-26T01:56:57.316Z,11.88
2022-10-26T01:57:07.576Z,11.91
2022-10-26T01:57:17.839Z,11.89
2022-10-26T01:57:28.124Z,11.89
2022-10-26T01:57:38.407Z,11.88
2022-10-26T01:57:48.905Z,11.89
2022-10-26T01:57:59.053Z,11.88
2022-10-26T01:58:09.313Z,11.93
2022-10-26T01:58:19.578Z,11.89
2022-10-26T01:58:29.837Z,11.89
2022-10-26T01:58:40.099Z,11.89
2022-10-26T01:58:50.362Z,11.89
2022-10-26T01:59:00.622Z,11.91
2022-10-26T01:59:10.882Z,11.91
2022-10-26T01:59:21.145Z,11.91
2022-10-26T01:59:31.406Z,11.91
2022-10-26T01:59:41.668Z,11.89
2022-10-26T01:59:51.932Z,11.89
2022-10-26T02:00:02.208Z,11.89
2022-10-26T02:00:12.457Z,11.91
2022-10-26T02:00:22.718Z,11.91
2022-10-26T02:00:32.981Z,11.89
2022-10-26T02:00:43.242Z,11.89
2022-10-26T02:00:53.503Z,11.91
2022-10-26T02:01:03.791Z,11.91
2022-10-26T02:01:14.077Z,11.91
2022-10-26T02:01:24.428Z,11.91
2022-10-26T02:01:34.745Z,11.93
2022-10-26T02:01:45.028Z,11.91
2022-10-26T02:01:55.266Z,11.91
2022-10-26T02:02:05.528Z,11.91
2022-10-26T02:02:15.791Z,11.93
2022-10-26T02:02:26.053Z,11.93
2022-10-26T02:02:36.336Z,11.93
2022-10-26T02:02:46.597Z,11.91
2022-10-26T02:02:56.861Z,11.93
2022-10-26T02:03:07.131Z,11.93
2022-10-26T02:03:17.461Z,11.93
2022-10-26T02:03:27.738Z,11.93
2022-10-26T02:03:38.061Z,11.93
2022-10-26T02:03:48.471Z,11.93
2022-10-26T02:03:58.758Z,11.93
2022-10-26T02:04:08.999Z,11.93
2022-10-26T02:04:19.334Z,11.93
2022-10-26T02:04:29.560Z,11.95
2022-10-26T02:04:39.825Z,11.93
2022-10-26T02:04:50.082Z,11.93
2022-10-26T02:05:00.344Z,11.93
2022-10-26T02:05:10.607Z,11.95
2022-10-26T02:05:20.867Z,11.96
2022-10-26T02:05:31.130Z,11.93
2022-10-26T02:05:41.401Z,11.91
2022-10-26T02:05:51.656Z,11.93
2022-10-26T02:06:01.925Z,11.93
2022-10-26T02:06:12.180Z,11.95
2022-10-26T02:06:22.441Z,11.93
2022-10-26T02:06:32.703Z,11.95
2022-10-26T02:06:42.966Z,11.95
2022-10-26T02:06:53.227Z,11.95
2022-10-26T02:07:03.488Z,11.95
2022-10-26T02:07:13.752Z,11.95
2022-10-26T02:07:24.015Z,11.95
2022-10-26T02:07:34.275Z,11.93
2022-10-26T02:07:44.565Z,11.95
2022-10-26T02:07:54.830Z,11.95
2022-10-26T02:08:05.092Z,11.96
2022-10-26T02:08:15.353Z,11.97
2022-10-26T02:08:25.614Z,11.95
2022-10-26T02:08:35.875Z,11.96
2022-10-26T02:08:46.137Z,11.96
2022-10-26T02:08:56.402Z,11.95
2022-10-26T02:09:06.663Z,11.96
2022-10-26T02:09:16.926Z,11.96
2022-10-26T02:09:27.188Z,11.96
2022-10-26T02:09:37.451Z,11.96
2022-10-26T02:09:47.711Z,11.96
2022-10-26T02:09:57.974Z,11.96
2022-10-26T02:10:08.236Z,11.97
2022-10-26T02:10:18.501Z,11.96
2022-10-26T02:10:28.760Z,11.97
2022-10-26T02:10:39.025Z,11.95
2022-10-26T02:10:49.287Z,11.97
2022-10-26T02:10:59.545Z,11.96
2022-10-26T02:11:09.805Z,11.96
2022-10-26T02:11:20.068Z,11.96
2022-10-26T02:11:30.328Z,11.99
2022-10-26T02:11:40.591Z,11.97
2022-10-26T02:11:50.852Z,11.97
2022-10-26T02:12:01.114Z,11.99
2022-10-26T02:12:11.373Z,11.97
2022-10-26T02:12:21.639Z,12.00
2022-10-26T02:12:31.898Z,11.99